createdAt,value
2019-03-18T00:03:01.938Z,1.60
2019-03-18T00:07:05.759Z,1.70
2019-03-18T00:11:09.214Z,1.93
2019-03-18T00:15:12.227Z,3.73
2019-03-18T00:19:15.236Z,4.63
2019-03-18T00:23:18.257Z,4.10
2019-03-18T00:27:21.292Z,4.80
2019-03-18T00:31:24.288Z,4.30
2019-03-18T00:35:27.374Z,5.90
2019-03-18T00:39:30.457Z,4.93
2019-03-18T00:43:33.439Z,6.60
2019-03-18T00:47:36.459Z,5.43
2019-03-18T00:51:39.561Z,4.73
2019-03-18T00:55:42.574Z,4.87
2019-03-18T00:59:45.619Z,4.93
2019-03-18T01:03:49.655Z,4.20
2019-03-18T01:07:54.641Z,4.50
2019-03-18T01:11:57.643Z,4.13
2019-03-18T01:16:00.671Z,3.83
2019-03-18T01:20:05.459Z,3.77
2019-03-18T01:24:08.456Z,5.33
2019-03-18T01:28:11.461Z,4.53
2019-03-18T01:32:14.510Z,4.50
2019-03-18T01:36:17.554Z,4.40
2019-03-18T01:40:20.551Z,4.00
2019-03-18T01:44:23.558Z,4.10
2019-03-18T01:48:26.556Z,3.50
2019-03-18T01:52:29.570Z,4.60
2019-03-18T01:56:32.564Z,4.00
2019-03-18T02:00:35.688Z,4.57
2019-03-18T02:04:38.699Z,4.30
2019-03-18T02:08:42.620Z,4.30
2019-03-18T02:12:45.640Z,5.00
2019-03-18T02:16:48.646Z,4.30
2019-03-18T02:20:51.657Z,5.47
2019-03-18T02:24:54.672Z,4.70
2019-03-18T02:28:57.692Z,5.50
2019-03-18T02:33:00.709Z,5.37
2019-03-18T02:37:03.712Z,5.90
2019-03-18T02:41:06.719Z,6.77
2019-03-18T02:45:10.013Z,6.43
2019-03-18T02:49:13.013Z,8.07
2019-03-18T02:53:16.026Z,7.10
2019-03-18T02:57:19.006Z,6.53
2019-03-18T03:01:22.030Z,8.00
2019-03-18T03:05:25.056Z,7.37
2019-03-18T03:09:29.137Z,6.67
2019-03-18T03:13:32.147Z,8.07
2019-03-18T03:17:35.193Z,8.30
2019-03-18T03:21:38.276Z,9.57
2019-03-18T03:25:41.272Z,8.20
2019-03-18T03:29:44.281Z,8.50
2019-03-18T03:33:47.286Z,8.40
2019-03-18T03:37:50.455Z,8.77
2019-03-18T03:41:53.461Z,8.80
2019-03-18T03:45:56.567Z,6.63
2019-03-18T03:49:59.707Z,7.43
2019-03-18T03:54:02.936Z,8.00
2019-03-18T03:58:06.039Z,7.70
2019-03-18T04:02:09.140Z,7.80
2019-03-18T04:06:13.145Z,7.87
2019-03-18T04:10:17.021Z,7.53
2019-03-18T04:14:20.028Z,7.97
2019-03-18T04:18:23.027Z,7.67
2019-03-18T04:22:26.019Z,8.00
2019-03-18T04:26:29.037Z,8.50
2019-03-18T04:30:32.065Z,8.23
2019-03-18T04:34:35.059Z,8.77
2019-03-18T04:38:38.064Z,9.03
2019-03-18T04:42:41.062Z,9.07
2019-03-18T04:46:44.139Z,7.43
2019-03-18T04:50:47.144Z,8.03
2019-03-18T04:54:50.155Z,8.53
2019-03-18T04:58:53.187Z,8.53
2019-03-18T05:02:56.201Z,7.70
2019-03-18T05:07:01.260Z,7.53
2019-03-18T05:11:04.693Z,9.07
2019-03-18T05:15:08.892Z,7.87
2019-03-18T05:19:11.913Z,8.13
2019-03-18T05:23:14.975Z,9.20
2019-03-18T05:27:17.978Z,9.53
2019-03-18T05:31:21.066Z,8.47
2019-03-18T05:35:24.081Z,8.23
2019-03-18T05:39:28.099Z,10.70
2019-03-18T05:43:31.183Z,9.70
2019-03-18T05:47:39.534Z,9.23
2019-03-18T05:51:39.640Z,8.60
2019-03-18T05:55:42.731Z,8.77
2019-03-18T05:59:45.822Z,9.30
2019-03-18T06:03:48.937Z,8.47
2019-03-18T06:07:52.025Z,9.23
2019-03-18T06:11:55.800Z,9.23
2019-03-18T06:15:58.870Z,9.47
2019-03-18T06:20:04.840Z,10.60
2019-03-18T06:24:07.847Z,8.20
2019-03-18T06:28:10.852Z,10.87
2019-03-18T06:32:13.967Z,9.40
2019-03-18T06:36:16.944Z,8.40
2019-03-18T06:40:19.956Z,8.97
2019-03-18T06:44:22.942Z,8.53
2019-03-18T06:48:25.961Z,7.03
2019-03-18T06:52:28.942Z,7.47
2019-03-18T06:56:31.955Z,6.30
2019-03-18T07:00:35.062Z,6.97
2019-03-18T07:04:38.062Z,6.00
2019-03-18T07:08:41.063Z,6.03
2019-03-18T07:12:45.760Z,5.90
2019-03-18T07:16:48.759Z,6.03
2019-03-18T07:20:51.763Z,6.73
2019-03-18T07:24:54.762Z,6.03
2019-03-18T07:28:57.775Z,6.13
2019-03-18T07:33:00.780Z,7.00
2019-03-18T07:37:03.776Z,5.90
2019-03-18T07:41:06.762Z,5.53
2019-03-18T07:45:10.475Z,5.00
2019-03-18T07:49:13.450Z,6.17
2019-03-18T07:53:18.422Z,6.07
2019-03-18T07:57:21.610Z,6.03
2019-03-18T08:01:24.712Z,6.17
2019-03-18T08:05:27.814Z,8.17
2019-03-18T08:09:30.799Z,5.30
2019-03-18T08:13:33.898Z,4.70
2019-03-18T08:17:36.903Z,4.80
2019-03-18T08:21:39.930Z,4.53
2019-03-18T08:25:42.907Z,4.23
2019-03-18T08:29:45.891Z,4.30
2019-03-18T08:33:48.890Z,4.70
2019-03-18T08:37:54.701Z,3.67
2019-03-18T08:41:56.795Z,3.27
2019-03-18T08:45:59.791Z,3.60
2019-03-18T08:50:05.282Z,3.57
2019-03-18T08:54:08.383Z,3.40
2019-03-18T08:58:11.451Z,3.67
2019-03-18T09:02:14.487Z,3.30
2019-03-18T09:06:17.482Z,4.20
2019-03-18T09:10:20.480Z,3.53
2019-03-18T09:14:24.555Z,3.67
2019-03-18T09:18:27.571Z,3.80
2019-03-18T09:22:30.591Z,3.03
2019-03-18T09:26:33.590Z,3.00
2019-03-18T09:30:36.629Z,3.53
2019-03-18T09:34:39.632Z,3.27
2019-03-18T09:38:42.630Z,2.87
2019-03-18T09:42:45.633Z,3.20
2019-03-18T09:46:48.623Z,3.47
2019-03-18T09:50:51.647Z,3.40
2019-03-18T09:54:54.634Z,3.60
2019-03-18T09:58:57.730Z,4.20
2019-03-18T10:03:00.726Z,3.37
2019-03-18T10:07:03.846Z,2.67
2019-03-18T10:11:06.912Z,2.97
2019-03-18T10:15:20.951Z,3.07
2019-03-18T10:19:33.390Z,2.57
2019-03-18T10:23:30.045Z,2.70
2019-03-18T10:27:33.217Z,2.90
2019-03-18T10:31:36.210Z,2.53
2019-03-18T10:35:39.225Z,2.33
2019-03-18T10:39:42.203Z,2.23
2019-03-18T10:43:45.207Z,2.50
2019-03-18T10:47:48.199Z,2.17
2019-03-18T10:51:51.211Z,2.13
2019-03-18T10:55:54.309Z,2.77
2019-03-18T10:59:57.406Z,2.60
2019-03-18T11:04:00.415Z,2.37
2019-03-18T11:08:03.500Z,2.40
2019-03-18T11:12:06.519Z,2.63
2019-03-18T11:16:10.142Z,2.90
2019-03-18T11:20:14.055Z,3.23
2019-03-18T11:24:17.055Z,2.10
2019-03-18T11:28:20.041Z,2.50
2019-03-18T11:32:23.051Z,3.07
2019-03-18T11:36:26.058Z,2.60
2019-03-18T11:40:29.105Z,2.40
2019-03-18T11:44:32.124Z,2.07
2019-03-18T11:48:36.199Z,2.33
2019-03-18T11:52:39.235Z,2.77
2019-03-18T11:56:42.343Z,2.93
2019-03-18T12:00:45.359Z,2.40
2019-03-18T12:04:50.371Z,2.63
2019-03-18T12:08:53.459Z,2.67
2019-03-18T12:12:56.477Z,3.07
2019-03-18T12:17:00.190Z,1.83
2019-03-18T12:21:03.298Z,2.20
2019-03-18T12:25:07.680Z,1.60
2019-03-18T12:29:10.754Z,2.10
2019-03-18T12:33:13.742Z,1.80
2019-03-18T12:37:16.758Z,1.63
2019-03-18T12:41:19.823Z,2.40
2019-03-18T12:45:22.814Z,1.73
2019-03-18T12:49:25.814Z,2.80
2019-03-18T12:53:28.807Z,2.80
2019-03-18T12:57:31.809Z,2.33
2019-03-18T13:01:34.815Z,4.97
2019-03-18T13:05:37.819Z,3.00
2019-03-18T13:09:40.815Z,2.70
2019-03-18T13:13:43.820Z,2.30
2019-03-18T13:17:47.555Z,2.87
2019-03-18T13:21:50.551Z,2.20
2019-03-18T13:25:53.557Z,2.00
2019-03-18T13:29:56.555Z,1.40
2019-03-18T13:33:59.666Z,1.70
2019-03-18T13:38:02.651Z,1.60
2019-03-18T13:42:05.648Z,1.37
2019-03-18T13:46:08.702Z,1.83
2019-03-18T13:50:14.138Z,1.90
2019-03-18T13:54:17.159Z,1.60
2019-03-18T13:58:20.170Z,1.87
2019-03-18T14:02:23.172Z,2.00
2019-03-18T14:06:26.448Z,2.17
2019-03-18T14:10:29.502Z,1.70
2019-03-18T14:14:32.519Z,2.03
2019-03-18T14:18:36.393Z,1.57
2019-03-18T14:22:39.390Z,2.20
2019-03-18T14:26:42.430Z,2.33
2019-03-18T14:30:45.458Z,1.90
2019-03-18T14:34:48.455Z,2.80
2019-03-18T14:38:51.455Z,5.50
2019-03-18T14:42:54.463Z,3.40
2019-03-18T14:46:57.461Z,2.40
2019-03-18T14:51:00.453Z,2.57
2019-03-18T14:55:06.458Z,3.77
2019-03-18T14:59:09.447Z,2.60
2019-03-18T15:03:12.491Z,2.30
2019-03-18T15:07:15.503Z,2.80
2019-03-18T15:11:18.562Z,2.27
2019-03-18T15:15:21.577Z,2.70
2019-03-18T15:19:24.962Z,2.87
2019-03-18T15:23:27.975Z,2.60
2019-03-18T15:27:30.983Z,2.53
2019-03-18T15:31:33.977Z,2.27
2019-03-18T15:35:37.015Z,2.33
2019-03-18T15:39:40.027Z,1.90
2019-03-18T15:43:43.087Z,3.30
2019-03-18T15:47:46.226Z,2.00
2019-03-18T15:51:49.228Z,2.00
2019-03-18T15:55:52.242Z,3.13
2019-03-18T15:59:55.266Z,2.60
2019-03-18T16:03:58.302Z,2.50
2019-03-18T16:08:01.278Z,2.40
2019-03-18T16:12:04.274Z,3.80
2019-03-18T16:16:07.266Z,3.30
2019-03-18T16:20:21.458Z,11.43
2019-03-18T16:24:24.467Z,3.70
2019-03-18T16:28:27.467Z,5.30
2019-03-18T16:32:30.471Z,2.03
2019-03-18T16:36:33.470Z,2.23
2019-03-18T16:40:36.472Z,2.00
2019-03-18T16:44:39.467Z,1.73
2019-03-18T16:48:42.479Z,1.53
2019-03-18T16:52:45.491Z,2.00
2019-03-18T16:56:48.499Z,1.90
2019-03-18T17:00:51.518Z,1.87
2019-03-18T17:04:54.538Z,1.70
2019-03-18T17:08:57.530Z,1.47
2019-03-18T17:13:00.644Z,2.53
2019-03-18T17:17:03.752Z,1.70
2019-03-18T17:21:07.817Z,1.50
2019-03-18T17:25:22.544Z,2.13
2019-03-18T17:29:25.632Z,1.33
2019-03-18T17:33:28.696Z,2.17
2019-03-18T17:37:31.695Z,6.77
2019-03-18T17:41:34.735Z,19.13
2019-03-18T17:45:37.732Z,21.43
2019-03-18T17:49:40.746Z,6.80
2019-03-18T17:53:43.759Z,3.40
2019-03-18T17:57:47.846Z,2.33
2019-03-18T18:01:50.844Z,3.00
2019-03-18T18:05:53.847Z,2.07
2019-03-18T18:09:56.838Z,8.20
2019-03-18T18:13:59.941Z,4.23
2019-03-18T18:18:03.014Z,3.47
2019-03-18T18:22:07.704Z,3.57
2019-03-18T18:26:10.736Z,2.73
2019-03-18T18:30:15.368Z,3.00
2019-03-18T18:34:18.364Z,3.80
2019-03-18T18:38:21.367Z,4.03
2019-03-18T18:42:24.459Z,2.83
2019-03-18T18:46:27.864Z,2.87
2019-03-18T18:50:30.910Z,2.50
2019-03-18T18:54:33.878Z,3.30
2019-03-18T18:58:36.963Z,3.00
2019-03-18T19:02:40.094Z,2.90
2019-03-18T19:06:43.159Z,4.10
2019-03-18T19:10:46.150Z,3.00
2019-03-18T19:14:49.247Z,2.90
2019-03-18T19:18:54.307Z,2.87
2019-03-18T19:22:58.695Z,3.00
2019-03-18T19:27:01.716Z,2.97
2019-03-18T19:31:04.830Z,2.83
2019-03-18T19:35:09.895Z,2.80
2019-03-18T19:39:12.960Z,2.07
2019-03-18T19:43:16.092Z,2.30
2019-03-18T19:47:19.152Z,4.20
2019-03-18T19:51:22.258Z,3.20
2019-03-18T19:55:25.343Z,3.90
2019-03-18T19:59:28.446Z,3.60
2019-03-18T20:03:31.551Z,3.67
2019-03-18T20:07:34.652Z,3.80
2019-03-18T20:11:37.760Z,3.00
2019-03-18T20:15:40.958Z,3.50
2019-03-18T20:19:44.030Z,3.20
2019-03-18T20:23:47.999Z,2.53
2019-03-18T20:27:51.175Z,4.70
2019-03-18T20:31:54.238Z,3.63
2019-03-18T20:35:57.256Z,3.90
2019-03-18T20:40:00.415Z,4.47
2019-03-18T20:44:03.655Z,3.70
2019-03-18T20:48:08.698Z,3.50
2019-03-18T20:52:16.676Z,2.93
2019-03-18T20:56:16.634Z,4.50
2019-03-18T21:00:20.638Z,4.37
2019-03-18T21:04:23.747Z,3.87
2019-03-18T21:08:26.873Z,4.67
2019-03-18T21:12:29.882Z,4.47
2019-03-18T21:16:34.011Z,3.47
2019-03-18T21:20:37.007Z,3.37
2019-03-18T21:24:40.446Z,3.97
2019-03-18T21:28:43.460Z,3.40
2019-03-18T21:32:46.621Z,3.43
2019-03-18T21:36:50.682Z,2.97
2019-03-18T21:40:53.695Z,3.83
2019-03-18T21:44:56.682Z,15.67
2019-03-18T21:48:59.686Z,5.77
2019-03-18T21:53:02.704Z,3.67
2019-03-18T21:57:05.768Z,4.07
2019-03-18T22:01:08.872Z,4.77
2019-03-18T22:05:12.147Z,4.57
2019-03-18T22:09:15.138Z,4.93
2019-03-18T22:13:18.154Z,6.20
2019-03-18T22:17:21.138Z,7.40
2019-03-18T22:21:24.146Z,17.27
2019-03-18T22:25:28.577Z,12.47
2019-03-18T22:29:31.563Z,19.77
2019-03-18T22:33:34.575Z,22.60
2019-03-18T22:37:37.571Z,16.73
2019-03-18T22:41:40.575Z,14.80
2019-03-18T22:45:43.567Z,14.03
2019-03-18T22:49:46.562Z,6.70
2019-03-18T22:53:49.585Z,8.50
2019-03-18T22:57:52.604Z,8.63
2019-03-18T23:01:55.622Z,11.67
2019-03-18T23:05:58.659Z,10.17
2019-03-18T23:10:04.250Z,7.63
2019-03-18T23:14:07.243Z,8.70
2019-03-18T23:18:10.301Z,7.43
2019-03-18T23:22:13.347Z,7.63
2019-03-18T23:26:18.074Z,9.20
2019-03-18T23:30:21.069Z,8.47
2019-03-18T23:34:24.117Z,6.20
2019-03-18T23:38:27.132Z,8.10
2019-03-18T23:42:30.114Z,8.73
2019-03-18T23:46:33.115Z,8.70
2019-03-18T23:50:37.226Z,9.07
2019-03-18T23:54:40.314Z,7.70
2019-03-18T23:58:43.367Z,7.40
